createdAt,value
2023-02-22T00:00:23.900Z,331.80
2023-02-22T00:02:51.053Z,294.03
2023-02-22T00:05:20.227Z,252.20
2023-02-22T00:07:47.734Z,258.23
2023-02-22T00:10:20.401Z,258.97
2023-02-22T00:12:48.952Z,293.83
2023-02-22T00:15:16.770Z,155.80
2023-02-22T00:17:43.887Z,150.73
2023-02-22T00:20:14.723Z,253.93
2023-02-22T00:22:42.645Z,249.90
2023-02-22T00:25:09.688Z,279.67
2023-02-22T00:27:36.895Z,172.73
2023-02-22T00:30:05.233Z,257.90
2023-02-22T00:32:32.546Z,247.47
2023-02-22T00:34:59.191Z,230.07
2023-02-22T00:37:25.856Z,210.43
2023-02-22T00:39:52.643Z,189.70
2023-02-22T00:42:20.180Z,253.30
2023-02-22T00:44:47.139Z,253.17
2023-02-22T00:47:13.826Z,265.10
2023-02-22T00:49:41.386Z,255.20
2023-02-22T00:52:09.311Z,242.33
2023-02-22T00:54:36.605Z,196.00
2023-02-22T00:57:03.730Z,284.57
2023-02-22T00:59:31.655Z,183.93
2023-02-22T01:01:58.615Z,215.50
2023-02-22T01:04:25.507Z,215.57
2023-02-22T01:06:52.441Z,252.73
2023-02-22T01:09:19.058Z,190.47
2023-02-22T01:11:47.667Z,211.97
2023-02-22T01:14:14.415Z,161.97
2023-02-22T01:16:41.698Z,241.53
2023-02-22T01:19:08.447Z,156.37
2023-02-22T01:21:35.105Z,185.80
2023-02-22T01:24:01.807Z,257.83
2023-02-22T01:26:28.421Z,232.63
2023-02-22T01:28:55.048Z,212.67
2023-02-22T01:31:24.167Z,172.93
2023-02-22T01:33:51.172Z,200.60
2023-02-22T01:36:19.070Z,196.90
2023-02-22T01:38:46.337Z,146.87
2023-02-22T01:41:13.258Z,202.40
2023-02-22T01:43:39.913Z,179.27
2023-02-22T01:46:08.514Z,109.93
2023-02-22T01:48:39.605Z,161.57
2023-02-22T01:51:19.804Z,153.30
2023-02-22T01:53:49.297Z,188.97
2023-02-22T01:56:17.973Z,200.50
2023-02-22T01:58:47.055Z,138.07
2023-02-22T02:01:14.545Z,139.57
2023-02-22T02:03:42.059Z,198.50
2023-02-22T02:06:12.238Z,154.30
2023-02-22T02:08:52.651Z,176.47
2023-02-22T02:11:20.916Z,141.63
2023-02-22T02:13:49.869Z,161.97
2023-02-22T02:16:16.784Z,147.13
2023-02-22T02:18:44.731Z,100.67
2023-02-22T02:21:11.954Z,130.20
2023-02-22T02:23:57.194Z,111.47
2023-02-22T02:26:42.489Z,178.67
2023-02-22T02:29:14.904Z,154.03
2023-02-22T02:32:00.244Z,126.17
2023-02-22T02:34:31.821Z,232.43
2023-02-22T02:37:01.522Z,105.50
2023-02-22T02:39:35.090Z,69.63
2023-02-22T02:42:04.201Z,135.70
2023-02-22T02:44:33.520Z,110.67
2023-02-22T02:47:00.356Z,57.53
2023-02-22T02:49:30.376Z,71.00
2023-02-22T02:51:57.224Z,46.93
2023-02-22T02:54:24.098Z,45.37
2023-02-22T02:56:52.404Z,73.47
2023-02-22T02:59:30.152Z,43.23
2023-02-22T03:02:15.499Z,80.63
2023-02-22T03:04:42.613Z,120.00
2023-02-22T03:07:29.405Z,130.93
2023-02-22T03:10:14.985Z,143.80
2023-02-22T03:12:41.611Z,189.10
2023-02-22T03:15:14.799Z,128.73
2023-02-22T03:17:52.627Z,97.07
2023-02-22T03:20:31.831Z,95.37
2023-02-22T03:23:04.760Z,83.63
2023-02-22T03:25:38.394Z,86.60
2023-02-22T03:28:07.408Z,112.87
2023-02-22T03:30:39.572Z,79.47
2023-02-22T03:33:10.827Z,84.90
2023-02-22T03:35:41.439Z,80.07
2023-02-22T03:38:10.343Z,65.40
2023-02-22T03:40:39.627Z,74.17
2023-02-22T03:43:18.934Z,60.20
2023-02-22T03:45:48.947Z,51.33
2023-02-22T03:48:31.432Z,36.63
2023-02-22T03:51:04.845Z,34.13
2023-02-22T03:53:34.414Z,42.73
2023-02-22T03:56:02.183Z,28.50
2023-02-22T03:58:32.154Z,28.53
2023-02-22T04:00:58.896Z,29.80
2023-02-22T04:03:25.542Z,33.00
2023-02-22T04:05:53.558Z,19.87
2023-02-22T04:08:21.565Z,21.97
2023-02-22T04:10:48.346Z,28.50
2023-02-22T04:13:19.067Z,24.80
2023-02-22T04:15:48.636Z,26.17
2023-02-22T04:18:15.540Z,23.77
2023-02-22T04:20:46.356Z,15.77
2023-02-22T04:23:21.857Z,16.60
2023-02-22T04:25:49.211Z,16.90
2023-02-22T04:28:17.575Z,15.37
2023-02-22T04:30:55.366Z,17.20
2023-02-22T04:33:23.136Z,15.13
2023-02-22T04:35:49.770Z,13.97
2023-02-22T04:38:16.410Z,15.37
2023-02-22T04:40:43.175Z,17.10
2023-02-22T04:43:09.904Z,15.93
2023-02-22T04:45:36.630Z,17.27
2023-02-22T04:48:04.715Z,18.23
2023-02-22T04:50:31.734Z,17.87
2023-02-22T04:52:58.456Z,19.77
2023-02-22T04:55:25.232Z,17.63
2023-02-22T04:57:51.921Z,19.50
2023-02-22T05:00:22.082Z,17.47
2023-02-22T05:02:50.924Z,17.60
2023-02-22T05:05:19.165Z,19.03
2023-02-22T05:07:45.858Z,16.70
2023-02-22T05:10:13.831Z,19.00
2023-02-22T05:12:40.602Z,17.30
2023-02-22T05:15:07.839Z,18.30
2023-02-22T05:17:35.270Z,18.17
2023-02-22T05:20:03.268Z,20.63
2023-02-22T05:22:30.461Z,20.07
2023-02-22T05:24:57.551Z,22.03
2023-02-22T05:27:24.171Z,21.30
2023-02-22T05:29:50.801Z,21.97
2023-02-22T05:32:17.627Z,21.63
2023-02-22T05:34:44.334Z,21.30
2023-02-22T05:37:11.094Z,20.47
2023-02-22T05:39:37.680Z,20.63
2023-02-22T05:42:04.439Z,25.33
2023-02-22T05:44:31.127Z,22.57
2023-02-22T05:46:58.013Z,20.90
2023-02-22T05:49:24.682Z,24.33
2023-02-22T05:51:51.355Z,22.43
2023-02-22T05:54:18.067Z,18.27
2023-02-22T05:56:44.711Z,22.83
2023-02-22T05:59:11.363Z,22.23
2023-02-22T06:01:38.061Z,17.67
2023-02-22T06:04:04.773Z,19.00
2023-02-22T06:06:31.537Z,22.23
2023-02-22T06:08:58.146Z,17.30
2023-02-22T06:11:24.845Z,14.43
2023-02-22T06:13:52.463Z,16.67
2023-02-22T06:16:21.246Z,16.20
2023-02-22T06:18:48.288Z,18.70
2023-02-22T06:21:15.208Z,17.03
2023-02-22T06:23:42.012Z,16.23
2023-02-22T06:26:09.255Z,15.03
2023-02-22T06:28:36.076Z,15.97
2023-02-22T06:31:03.026Z,14.90
2023-02-22T06:33:29.774Z,14.33
2023-02-22T06:35:56.399Z,16.43
2023-02-22T06:38:23.959Z,12.57
2023-02-22T06:40:50.784Z,17.00
2023-02-22T06:43:17.654Z,16.87
2023-02-22T06:45:44.703Z,13.33
2023-02-22T06:48:11.334Z,15.20
2023-02-22T06:50:37.943Z,13.13
2023-02-22T06:53:04.922Z,13.40
2023-02-22T06:55:32.696Z,14.30
2023-02-22T06:57:59.792Z,13.10
2023-02-22T07:00:27.975Z,15.60
2023-02-22T07:02:55.280Z,13.40
2023-02-22T07:05:23.310Z,12.23
2023-02-22T07:07:52.660Z,14.50
2023-02-22T07:10:20.955Z,10.90
2023-02-22T07:12:48.727Z,11.87
2023-02-22T07:15:18.181Z,15.33
2023-02-22T07:17:44.985Z,13.63
2023-02-22T07:20:11.928Z,16.17
2023-02-22T07:22:39.230Z,13.10
2023-02-22T07:25:07.079Z,14.73
2023-02-22T07:27:35.912Z,11.90
2023-02-22T07:30:02.695Z,15.77
2023-02-22T07:32:29.545Z,16.63
2023-02-22T07:34:56.238Z,14.50
2023-02-22T07:37:23.004Z,12.20
2023-02-22T07:39:49.844Z,15.90
2023-02-22T07:42:16.571Z,19.30
2023-02-22T07:44:45.454Z,13.13
2023-02-22T07:47:13.042Z,13.83
2023-02-22T07:49:39.709Z,10.77
2023-02-22T07:52:07.863Z,10.80
2023-02-22T07:54:34.537Z,12.70
2023-02-22T07:57:01.217Z,12.93
2023-02-22T07:59:27.891Z,11.40
2023-02-22T08:01:54.514Z,12.10
2023-02-22T08:04:21.590Z,10.00
2023-02-22T08:06:49.666Z,10.60
2023-02-22T08:09:16.330Z,11.37
2023-02-22T08:11:42.961Z,11.27
2023-02-22T08:14:10.173Z,14.03
2023-02-22T08:16:36.864Z,12.10
2023-02-22T08:19:03.629Z,13.60
2023-02-22T08:21:30.524Z,12.57
2023-02-22T08:23:57.785Z,10.90
2023-02-22T08:26:25.539Z,13.57
2023-02-22T08:28:52.306Z,12.20
2023-02-22T08:31:19.458Z,12.23
2023-02-22T08:33:50.072Z,15.03
2023-02-22T08:36:18.656Z,9.33
2023-02-22T08:38:45.801Z,9.33
2023-02-22T08:41:12.482Z,11.27
2023-02-22T08:43:39.226Z,10.53
2023-02-22T08:46:05.961Z,10.30
2023-02-22T08:48:32.699Z,8.03
2023-02-22T08:50:59.419Z,9.50
2023-02-22T08:53:26.230Z,11.00
2023-02-22T08:55:53.096Z,9.30
2023-02-22T08:58:19.790Z,9.70
2023-02-22T09:00:47.285Z,9.60
2023-02-22T09:03:14.825Z,7.83
2023-02-22T09:05:42.283Z,8.40
2023-02-22T09:08:09.783Z,9.30
2023-02-22T09:10:36.555Z,9.80
2023-02-22T09:13:04.228Z,8.40
2023-02-22T09:15:31.166Z,9.57
2023-02-22T09:17:58.507Z,8.73
2023-02-22T09:20:25.626Z,7.20
2023-02-22T09:22:53.134Z,9.00
2023-02-22T09:25:22.962Z,8.17
2023-02-22T09:27:50.346Z,9.43
2023-02-22T09:30:27.458Z,7.57
2023-02-22T09:32:55.367Z,10.43
2023-02-22T09:35:27.410Z,10.50
2023-02-22T09:37:55.431Z,10.60
2023-02-22T09:40:25.569Z,9.17
2023-02-22T09:43:00.982Z,12.53
2023-02-22T09:45:48.376Z,12.67
2023-02-22T09:48:21.983Z,9.53
2023-02-22T09:50:51.681Z,8.23
2023-02-22T09:53:21.906Z,9.53
2023-02-22T09:55:54.115Z,8.13
2023-02-22T09:58:23.592Z,10.67
2023-02-22T10:00:55.967Z,7.80
2023-02-22T10:03:29.789Z,7.03
2023-02-22T10:06:01.909Z,10.07
2023-02-22T10:08:31.321Z,10.20
2023-02-22T10:11:16.128Z,6.83
2023-02-22T10:14:08.936Z,8.53
2023-02-22T10:16:43.117Z,9.50
2023-02-22T10:19:36.093Z,9.00
2023-02-22T10:22:23.615Z,7.17
2023-02-22T10:25:00.730Z,11.93
2023-02-22T10:27:39.056Z,10.57
2023-02-22T10:30:24.082Z,9.07
2023-02-22T10:33:01.993Z,8.70
2023-02-22T10:35:36.094Z,14.20
2023-02-22T10:38:11.147Z,11.13
2023-02-22T10:40:39.350Z,13.73
2023-02-22T10:43:08.103Z,11.17
2023-02-22T10:45:37.167Z,10.53
2023-02-22T10:48:08.794Z,10.33
2023-02-22T10:50:37.337Z,8.77
2023-02-22T10:53:04.339Z,8.47
2023-02-22T10:55:31.286Z,8.30
2023-02-22T10:58:04.590Z,12.57
2023-02-22T11:00:33.171Z,10.53
2023-02-22T11:03:01.030Z,10.33
2023-02-22T11:05:30.526Z,10.97
2023-02-22T11:08:16.020Z,7.97
2023-02-22T11:10:43.513Z,9.27
2023-02-22T11:13:31.107Z,9.53
2023-02-22T11:16:03.326Z,9.40
2023-02-22T11:18:32.446Z,6.97
2023-02-22T11:21:00.267Z,7.63
2023-02-22T11:23:26.933Z,7.47
2023-02-22T11:26:01.822Z,8.33
2023-02-22T11:28:33.161Z,7.83
2023-02-22T11:31:11.223Z,9.60
2023-02-22T11:33:38.665Z,9.20
2023-02-22T11:36:08.946Z,7.63
2023-02-22T11:38:37.363Z,7.43
2023-02-22T11:41:06.004Z,8.43
2023-02-22T11:43:32.702Z,8.17
2023-02-22T11:46:04.777Z,7.70
2023-02-22T11:48:34.900Z,6.87
2023-02-22T11:51:04.609Z,8.97
2023-02-22T11:53:49.907Z,8.40
2023-02-22T11:56:35.730Z,8.97
2023-02-22T11:59:22.964Z,7.00
2023-02-22T12:01:57.130Z,10.43
2023-02-22T12:04:36.860Z,7.27
2023-02-22T12:07:15.841Z,9.27
2023-02-22T12:09:48.015Z,7.77
2023-02-22T12:12:14.596Z,8.93
2023-02-22T12:14:54.976Z,8.10
2023-02-22T12:17:54.230Z,8.27
2023-02-22T12:20:27.023Z,7.83
2023-02-22T12:22:56.594Z,7.47
2023-02-22T12:25:26.661Z,7.67
2023-02-22T12:27:55.827Z,8.30
2023-02-22T12:30:25.060Z,8.07
2023-02-22T12:32:59.076Z,8.13
2023-02-22T12:35:37.646Z,9.90
2023-02-22T12:38:07.377Z,8.03
2023-02-22T12:40:54.105Z,7.87
2023-02-22T12:43:22.934Z,9.83
2023-02-22T12:45:49.625Z,7.73
2023-02-22T12:48:32.002Z,11.77
2023-02-22T12:51:17.748Z,8.00
2023-02-22T12:53:46.507Z,7.90
2023-02-22T12:56:31.685Z,10.03
2023-02-22T12:58:59.286Z,8.50
2023-02-22T13:01:30.199Z,9.00
2023-02-22T13:03:57.062Z,11.07
2023-02-22T13:06:32.862Z,8.03
2023-02-22T13:09:00.134Z,8.83
2023-02-22T13:11:48.041Z,7.70
2023-02-22T13:14:22.594Z,10.90
2023-02-22T13:17:08.046Z,8.53
2023-02-22T13:19:48.324Z,9.17
2023-02-22T13:22:15.389Z,8.93
2023-02-22T13:25:00.857Z,8.23
2023-02-22T13:27:47.009Z,9.20
2023-02-22T13:30:17.035Z,9.73
2023-02-22T13:32:47.092Z,11.43
2023-02-22T13:35:35.760Z,7.97
2023-02-22T13:38:22.154Z,9.00
2023-02-22T13:41:07.823Z,9.67
2023-02-22T13:43:34.443Z,12.90
2023-02-22T13:46:01.186Z,8.70
2023-02-22T13:48:35.956Z,10.97
2023-02-22T13:51:11.724Z,10.30
2023-02-22T13:53:44.338Z,12.13
2023-02-22T13:56:13.389Z,10.80
2023-02-22T13:59:09.442Z,9.47
2023-02-22T14:01:39.248Z,11.97
2023-02-22T14:04:26.220Z,10.83
2023-02-22T14:06:53.660Z,11.30
2023-02-22T14:09:39.205Z,10.27
2023-02-22T14:12:05.846Z,11.30
2023-02-22T14:14:32.891Z,13.77
2023-02-22T14:17:18.390Z,9.63
2023-02-22T14:20:00.187Z,10.17
2023-02-22T14:22:28.452Z,11.93
2023-02-22T14:24:55.136Z,9.83
2023-02-22T14:27:22.140Z,12.13
2023-02-22T14:29:50.417Z,9.53
2023-02-22T14:32:17.908Z,10.60
2023-02-22T14:34:58.218Z,11.97
2023-02-22T14:37:27.035Z,9.27
2023-02-22T14:39:58.699Z,10.67
2023-02-22T14:42:25.657Z,11.40
2023-02-22T14:44:52.611Z,9.83
2023-02-22T14:47:22.731Z,9.80
2023-02-22T14:49:51.039Z,10.27
2023-02-22T14:52:26.565Z,10.93
2023-02-22T14:55:06.107Z,11.90
2023-02-22T14:57:42.287Z,10.03
2023-02-22T15:00:22.948Z,8.67
2023-02-22T15:02:52.555Z,8.77
2023-02-22T15:05:19.813Z,9.30
2023-02-22T15:07:51.053Z,9.90
2023-02-22T15:10:20.891Z,11.20
2023-02-22T15:12:52.336Z,10.83
2023-02-22T15:15:23.206Z,10.60
2023-02-22T15:17:53.556Z,11.73
2023-02-22T15:20:21.856Z,10.37
2023-02-22T15:22:49.921Z,11.27
2023-02-22T15:25:23.904Z,12.03
2023-02-22T15:27:50.592Z,8.77
2023-02-22T15:30:20.314Z,15.80
2023-02-22T15:33:02.713Z,11.60
2023-02-22T15:35:31.705Z,12.73
2023-02-22T15:38:01.258Z,13.37
2023-02-22T15:40:33.269Z,12.53
2023-02-22T15:43:09.097Z,12.17
2023-02-22T15:45:43.442Z,12.63
2023-02-22T15:48:11.468Z,13.73
2023-02-22T15:50:38.222Z,12.20
2023-02-22T15:53:09.421Z,11.33
2023-02-22T15:55:43.930Z,19.27
2023-02-22T15:58:12.595Z,13.17
2023-02-22T16:00:41.545Z,13.57
2023-02-22T16:03:09.633Z,12.83
2023-02-22T16:05:41.017Z,14.27
2023-02-22T16:08:13.490Z,14.17
2023-02-22T16:10:43.175Z,14.50
2023-02-22T16:13:31.033Z,18.33
2023-02-22T16:15:57.956Z,16.10
2023-02-22T16:18:28.510Z,15.77
2023-02-22T16:20:59.934Z,14.73
2023-02-22T16:23:27.105Z,13.93
2023-02-22T16:26:26.654Z,13.90
2023-02-22T16:28:59.143Z,15.20
2023-02-22T16:31:28.140Z,14.13
2023-02-22T16:33:55.185Z,14.47
2023-02-22T16:36:23.629Z,13.33
2023-02-22T16:38:51.839Z,16.20
2023-02-22T16:41:19.952Z,14.53
2023-02-22T16:43:51.247Z,14.40
2023-02-22T16:46:21.268Z,16.20
2023-02-22T16:48:48.214Z,16.50
2023-02-22T16:51:20.752Z,15.40
2023-02-22T16:53:48.910Z,15.20
2023-02-22T16:56:18.325Z,15.33
2023-02-22T16:58:46.180Z,17.23
2023-02-22T17:01:13.150Z,17.70
2023-02-22T17:03:40.013Z,17.57
2023-02-22T17:06:06.992Z,18.53
2023-02-22T17:08:34.068Z,18.20
2023-02-22T17:11:02.143Z,23.40
2023-02-22T17:13:29.469Z,20.30
2023-02-22T17:15:57.122Z,20.10
2023-02-22T17:18:28.453Z,23.27
2023-02-22T17:20:55.339Z,22.07
2023-02-22T17:23:22.328Z,20.93
2023-02-22T17:25:51.190Z,19.97
2023-02-22T17:28:18.153Z,20.93
2023-02-22T17:30:47.995Z,26.13
2023-02-22T17:33:16.029Z,25.43
2023-02-22T17:35:43.069Z,23.50
2023-02-22T17:38:10.207Z,27.57
2023-02-22T17:40:37.871Z,29.93
2023-02-22T17:43:08.074Z,25.83
2023-02-22T17:45:37.381Z,27.93
2023-02-22T17:48:04.025Z,25.97
2023-02-22T17:50:31.842Z,27.67
2023-02-22T17:53:00.654Z,28.50
2023-02-22T17:55:27.442Z,30.00
2023-02-22T17:57:58.315Z,29.33
2023-02-22T18:00:35.155Z,29.43
2023-02-22T18:03:03.374Z,29.57
2023-02-22T18:05:30.590Z,30.23
2023-02-22T18:07:57.458Z,29.67
2023-02-22T18:10:26.699Z,30.20
2023-02-22T18:12:53.670Z,30.00
2023-02-22T18:15:21.845Z,30.50
2023-02-22T18:17:48.759Z,30.17
2023-02-22T18:20:16.074Z,31.07
2023-02-22T18:22:43.637Z,32.37
2023-02-22T18:25:11.312Z,32.50
2023-02-22T18:27:38.151Z,29.10
2023-02-22T18:30:05.558Z,34.43
2023-02-22T18:32:32.441Z,33.30
2023-02-22T18:34:59.128Z,35.43
2023-02-22T18:37:28.332Z,33.10
2023-02-22T18:39:58.472Z,32.07
2023-02-22T18:42:25.850Z,34.70
2023-02-22T18:44:53.121Z,34.73
2023-02-22T18:47:20.575Z,34.13
2023-02-22T18:49:47.911Z,35.80
2023-02-22T18:52:14.821Z,34.23
2023-02-22T18:54:42.986Z,39.27
2023-02-22T18:57:12.614Z,36.03
2023-02-22T18:59:39.771Z,34.87
2023-02-22T19:02:07.070Z,39.17
2023-02-22T19:04:34.092Z,34.00
2023-02-22T19:07:00.719Z,33.47
2023-02-22T19:09:27.554Z,36.67
2023-02-22T19:11:54.587Z,38.57
2023-02-22T19:14:21.308Z,33.47
2023-02-22T19:16:49.468Z,35.07
2023-02-22T19:19:25.487Z,36.40
2023-02-22T19:21:53.159Z,34.83
2023-02-22T19:24:20.557Z,35.47
2023-02-22T19:26:51.807Z,34.67
2023-02-22T19:29:18.852Z,32.87
2023-02-22T19:31:47.719Z,36.47
2023-02-22T19:34:15.536Z,38.07
2023-02-22T19:36:45.462Z,37.07
2023-02-22T19:39:13.289Z,35.63
2023-02-22T19:41:40.754Z,34.33
2023-02-22T19:44:07.521Z,36.57
2023-02-22T19:46:34.452Z,38.23
2023-02-22T19:49:01.833Z,37.67
2023-02-22T19:51:29.290Z,35.77
2023-02-22T19:53:57.484Z,35.63
2023-02-22T19:56:27.521Z,37.63
2023-02-22T19:58:55.530Z,36.83
2023-02-22T20:01:27.068Z,36.43
2023-02-22T20:04:00.346Z,37.17
2023-02-22T20:06:40.308Z,39.10
2023-02-22T20:09:16.001Z,38.17
2023-02-22T20:11:42.587Z,40.50
2023-02-22T20:14:12.745Z,40.27
2023-02-22T20:16:39.486Z,43.77
2023-02-22T20:19:06.558Z,40.27
2023-02-22T20:21:33.984Z,39.13
2023-02-22T20:24:04.957Z,41.80
2023-02-22T20:26:35.428Z,44.23
2023-02-22T20:29:04.081Z,47.33
2023-02-22T20:31:31.507Z,42.33
2023-02-22T20:33:59.315Z,42.17
2023-02-22T20:36:26.646Z,40.13
2023-02-22T20:39:02.474Z,39.13
2023-02-22T20:41:30.637Z,44.30
2023-02-22T20:43:57.663Z,43.17
2023-02-22T20:46:25.523Z,44.37
2023-02-22T20:48:55.601Z,42.37
2023-02-22T20:51:22.393Z,40.53
2023-02-22T20:53:49.142Z,44.73
2023-02-22T20:56:20.615Z,47.37
2023-02-22T20:58:47.572Z,43.93
2023-02-22T21:01:17.541Z,45.73
2023-02-22T21:03:45.749Z,44.13
2023-02-22T21:06:17.555Z,45.03
2023-02-22T21:08:47.614Z,42.33
2023-02-22T21:11:16.203Z,41.77
2023-02-22T21:13:44.135Z,47.27
2023-02-22T21:16:31.634Z,43.03
2023-02-22T21:19:00.746Z,43.00
2023-02-22T21:21:29.126Z,44.80
2023-02-22T21:23:58.102Z,42.47
2023-02-22T21:26:30.045Z,40.97
2023-02-22T21:29:05.295Z,43.40
2023-02-22T21:31:33.496Z,45.60
2023-02-22T21:34:01.817Z,45.00
2023-02-22T21:36:29.104Z,43.63
2023-02-22T21:38:57.250Z,44.70
2023-02-22T21:41:27.859Z,42.70
2023-02-22T21:43:55.882Z,43.70
2023-02-22T21:46:23.243Z,47.43
2023-02-22T21:48:50.044Z,46.87
2023-02-22T21:51:23.877Z,48.93
2023-02-22T21:53:52.439Z,46.83
2023-02-22T21:56:22.843Z,49.20
2023-02-22T21:58:53.701Z,45.37
2023-02-22T22:01:20.680Z,48.93
2023-02-22T22:03:47.740Z,49.40
2023-02-22T22:06:14.364Z,49.30
2023-02-22T22:08:41.644Z,48.20
2023-02-22T22:11:12.218Z,49.37
2023-02-22T22:13:39.394Z,46.97
2023-02-22T22:16:08.221Z,50.23
2023-02-22T22:18:38.888Z,46.60
2023-02-22T22:21:10.763Z,51.53
2023-02-22T22:23:41.490Z,46.43
2023-02-22T22:26:12.220Z,48.23
2023-02-22T22:28:39.937Z,49.13
2023-02-22T22:31:07.800Z,51.00
2023-02-22T22:33:35.127Z,46.57
2023-02-22T22:36:01.927Z,49.60
2023-02-22T22:38:29.793Z,48.57
2023-02-22T22:41:01.347Z,49.17
2023-02-22T22:43:29.152Z,49.50
2023-02-22T22:45:58.193Z,50.60
2023-02-22T22:48:25.695Z,46.20
2023-02-22T22:50:56.154Z,48.13
2023-02-22T22:53:22.782Z,51.40
2023-02-22T22:55:49.376Z,47.37
2023-02-22T22:58:15.932Z,50.93
2023-02-22T23:00:42.572Z,54.70
2023-02-22T23:03:14.307Z,47.77
2023-02-22T23:05:43.921Z,46.23
2023-02-22T23:08:11.520Z,50.90
2023-02-22T23:10:39.317Z,50.50
2023-02-22T23:13:09.868Z,48.97
2023-02-22T23:15:40.956Z,44.10
2023-02-22T23:18:07.596Z,44.10
2023-02-22T23:20:39.022Z,45.27
2023-02-22T23:23:06.222Z,47.83
2023-02-22T23:25:33.575Z,49.50
2023-02-22T23:28:00.215Z,49.07
2023-02-22T23:30:27.124Z,49.30
2023-02-22T23:32:54.033Z,46.70
2023-02-22T23:35:20.680Z,44.50
2023-02-22T23:37:53.487Z,48.60
2023-02-22T23:40:20.147Z,46.53
2023-02-22T23:42:49.041Z,45.07
2023-02-22T23:45:22.582Z,47.47
2023-02-22T23:47:57.366Z,46.00
2023-02-22T23:50:36.383Z,45.30
2023-02-22T23:53:03.766Z,47.93
2023-02-22T23:55:32.311Z,47.77
2023-02-22T23:57:59.733Z,49.00
